createdAt,value
2022-08-04T00:01:27.806Z,99.90
2022-08-04T00:04:52.451Z,99.90
2022-08-04T00:07:44.811Z,99.90
2022-08-04T00:10:28.412Z,99.90
2022-08-04T00:12:57.861Z,99.90
2022-08-04T00:15:27.508Z,99.90
2022-08-04T00:17:56.616Z,99.90
2022-08-04T00:20:30.631Z,99.90
2022-08-04T00:23:00.217Z,99.90
2022-08-04T00:25:31.826Z,99.90
2022-08-04T00:28:04.911Z,99.90
2022-08-04T00:30:34.222Z,99.90
2022-08-04T00:33:02.988Z,99.90
2022-08-04T00:35:42.452Z,99.90
2022-08-04T00:38:11.701Z,99.90
2022-08-04T00:41:10.526Z,99.90
2022-08-04T00:44:23.725Z,99.90
2022-08-04T00:47:24.506Z,99.90
2022-08-04T00:50:14.300Z,99.90
2022-08-04T00:52:50.341Z,99.90
2022-08-04T00:56:23.315Z,99.90
2022-08-04T00:59:20.306Z,99.90
2022-08-04T01:02:29.109Z,99.90
2022-08-04T01:05:27.931Z,99.90
2022-08-04T01:08:20.282Z,99.90
2022-08-04T01:11:28.411Z,99.90
2022-08-04T01:14:25.588Z,99.90
2022-08-04T01:17:24.163Z,99.90
2022-08-04T01:19:58.187Z,99.90
2022-08-04T01:22:47.079Z,99.90
2022-08-04T01:25:57.635Z,99.90
2022-08-04T01:28:46.157Z,99.90
2022-08-04T01:33:58.481Z,99.90
2022-08-04T01:36:35.910Z,99.90
2022-08-04T01:39:25.081Z,99.90
2022-08-04T01:41:58.200Z,99.90
2022-08-04T01:44:29.942Z,99.90
2022-08-04T01:46:57.982Z,99.90
2022-08-04T01:49:30.182Z,99.90
2022-08-04T01:52:10.427Z,99.90
2022-08-04T01:54:41.406Z,99.90
2022-08-04T01:57:37.153Z,99.90
2022-08-04T02:00:01.176Z,99.90
2022-08-04T02:02:28.662Z,99.90
2022-08-04T02:04:56.496Z,99.90
2022-08-04T02:07:39.347Z,99.90
2022-08-04T02:10:27.141Z,99.90
2022-08-04T02:13:04.631Z,99.90
2022-08-04T02:15:52.712Z,99.90
2022-08-04T02:18:43.331Z,99.90
2022-08-04T02:21:10.378Z,99.90
2022-08-04T02:23:41.110Z,99.90
2022-08-04T02:26:22.536Z,99.90
2022-08-04T02:29:13.687Z,99.90
2022-08-04T02:31:47.626Z,99.90
2022-08-04T02:34:24.791Z,99.90
2022-08-04T02:36:53.026Z,99.90
2022-08-04T02:39:21.635Z,99.90
2022-08-04T02:41:50.577Z,99.90
2022-08-04T02:44:23.003Z,99.90
2022-08-04T02:46:54.685Z,99.90
2022-08-04T02:49:24.243Z,99.90
2022-08-04T02:51:53.657Z,99.90
2022-08-04T02:54:32.585Z,99.90
2022-08-04T02:57:02.704Z,99.90
2022-08-04T02:59:53.505Z,99.90
2022-08-04T03:02:37.770Z,99.90
2022-08-04T03:05:17.075Z,99.90
2022-08-04T03:08:19.620Z,99.90
2022-08-04T03:11:14.692Z,99.90
2022-08-04T03:14:00.285Z,99.90
2022-08-04T03:16:42.450Z,99.90
2022-08-04T03:19:40.512Z,99.90
2022-08-04T03:22:53.785Z,99.90
2022-08-04T03:26:03.291Z,99.90
2022-08-04T03:28:54.570Z,99.90
2022-08-04T03:31:48.485Z,99.90
2022-08-04T03:34:42.816Z,99.90
2022-08-04T03:37:39.061Z,99.90
2022-08-04T03:40:29.281Z,99.90
2022-08-04T03:43:58.700Z,99.90
2022-08-04T03:46:17.911Z,99.90
2022-08-04T03:49:10.900Z,99.90
2022-08-04T03:52:17.957Z,99.90
2022-08-04T03:55:03.576Z,99.90
2022-08-04T03:57:58.495Z,99.90
2022-08-04T04:00:44.231Z,99.90
2022-08-04T04:03:45.051Z,99.90
2022-08-04T04:06:18.300Z,99.90
2022-08-04T04:08:57.282Z,99.90
2022-08-04T04:11:54.446Z,99.90
2022-08-04T04:14:44.851Z,99.90
2022-08-04T04:17:36.360Z,99.90
2022-08-04T04:20:23.671Z,99.90
2022-08-04T04:23:27.626Z,99.90
2022-08-04T04:26:16.006Z,99.90
2022-08-04T04:29:12.536Z,99.90
2022-08-04T04:32:06.206Z,99.90
2022-08-04T04:34:45.658Z,99.90
2022-08-04T04:37:22.342Z,99.90
2022-08-04T04:40:18.617Z,99.90
2022-08-04T04:43:20.697Z,99.90
2022-08-04T04:46:05.890Z,99.90
2022-08-04T04:48:53.416Z,99.90
2022-08-04T04:51:40.296Z,99.90
2022-08-04T04:54:17.937Z,99.90
2022-08-04T04:56:51.291Z,99.90
2022-08-04T04:59:27.941Z,99.90
2022-08-04T05:02:43.410Z,99.90
2022-08-04T05:05:16.555Z,99.90
2022-08-04T05:08:45.247Z,99.90
2022-08-04T05:11:14.325Z,99.90
2022-08-04T05:14:34.996Z,99.90
2022-08-04T05:16:50.115Z,99.90
2022-08-04T05:19:33.514Z,99.90
2022-08-04T05:22:13.923Z,99.90
2022-08-04T05:24:46.483Z,99.90
2022-08-04T05:27:27.141Z,99.90
2022-08-04T05:29:59.442Z,99.90
2022-08-04T05:32:40.353Z,99.90
2022-08-04T05:35:16.009Z,99.90
2022-08-04T05:38:04.564Z,99.90
2022-08-04T05:40:31.925Z,99.90
2022-08-04T05:43:00.854Z,99.90
2022-08-04T05:45:28.605Z,99.90
2022-08-04T05:48:09.230Z,99.90
2022-08-04T05:50:37.964Z,99.90
2022-08-04T05:53:06.526Z,99.90
2022-08-04T05:55:57.501Z,99.90
2022-08-04T05:58:22.845Z,99.90
2022-08-04T06:00:52.617Z,99.90
2022-08-04T06:03:23.230Z,99.90
2022-08-04T06:05:51.175Z,99.90
2022-08-04T06:08:18.683Z,99.90
2022-08-04T06:10:48.200Z,99.90
2022-08-04T06:13:49.119Z,99.90
2022-08-04T06:16:08.546Z,99.90
2022-08-04T06:19:59.898Z,99.90
2022-08-04T06:21:39.290Z,99.90
2022-08-04T06:24:10.981Z,99.90
2022-08-04T06:26:40.608Z,99.90
2022-08-04T06:29:18.209Z,99.90
2022-08-04T06:32:30.522Z,96.70
2022-08-04T06:34:35.870Z,98.60
2022-08-04T06:37:04.523Z,98.80
2022-08-04T06:39:33.288Z,98.60
2022-08-04T06:42:21.896Z,98.90
2022-08-04T06:44:52.710Z,98.80
2022-08-04T06:47:21.811Z,96.60
2022-08-04T06:51:24.988Z,96.90
2022-08-04T06:52:40.067Z,97.80
2022-08-04T06:55:08.535Z,97.30
2022-08-04T06:57:36.629Z,97.70
2022-08-04T07:00:12.163Z,97.60
2022-08-04T07:02:46.086Z,97.00
2022-08-04T07:05:13.976Z,96.60
2022-08-04T07:07:56.905Z,96.60
2022-08-04T07:10:28.195Z,95.70
2022-08-04T07:13:00.556Z,96.10
2022-08-04T07:15:28.565Z,97.20
2022-08-04T07:18:05.742Z,96.00
2022-08-04T07:20:35.445Z,91.20
2022-08-04T07:23:07.722Z,91.40
2022-08-04T07:26:11.450Z,91.90
2022-08-04T07:28:31.148Z,89.40
2022-08-04T07:30:59.017Z,88.50
2022-08-04T07:33:26.720Z,88.60
2022-08-04T07:36:09.738Z,90.80
2022-08-04T07:38:50.954Z,88.70
2022-08-04T07:41:43.311Z,86.50
2022-08-04T07:44:14.905Z,88.00
2022-08-04T07:46:43.378Z,90.00
2022-08-04T07:49:10.881Z,86.30
2022-08-04T07:51:38.724Z,87.50
2022-08-04T07:54:09.715Z,85.50
2022-08-04T07:56:41.571Z,87.00
2022-08-04T07:59:09.421Z,89.50
2022-08-04T08:01:37.481Z,86.00
2022-08-04T08:04:08.720Z,86.50
2022-08-04T08:06:42.728Z,84.70
2022-08-04T08:09:14.776Z,86.20
2022-08-04T08:12:37.316Z,86.80
2022-08-04T08:14:32.016Z,86.30
2022-08-04T08:17:02.907Z,86.50
2022-08-04T08:19:31.891Z,87.50
2022-08-04T08:22:01.226Z,86.90
2022-08-04T08:24:30.384Z,90.30
2022-08-04T08:26:58.364Z,89.60
2022-08-04T08:29:26.851Z,91.20
2022-08-04T08:31:56.668Z,89.70
2022-08-04T08:34:31.341Z,90.60
2022-08-04T08:37:21.601Z,87.60
2022-08-04T08:40:16.543Z,90.00
2022-08-04T08:44:05.033Z,90.10
2022-08-04T08:46:48.521Z,88.40
2022-08-04T08:50:02.020Z,90.40
2022-08-04T08:53:03.276Z,86.80
2022-08-04T08:55:57.150Z,87.70
2022-08-04T08:58:52.163Z,88.70
2022-08-04T09:01:37.649Z,89.10
2022-08-04T09:04:23.253Z,90.50
2022-08-04T09:07:26.051Z,90.20
2022-08-04T09:10:11.980Z,91.40
2022-08-04T09:12:44.114Z,92.20
2022-08-04T09:15:48.195Z,92.60
2022-08-04T09:21:00.894Z,91.00
2022-08-04T09:24:03.694Z,94.00
2022-08-04T09:34:31.336Z,92.20
2022-08-04T09:37:33.175Z,88.40
2022-08-04T09:40:53.754Z,88.10
2022-08-04T09:44:50.935Z,88.10
2022-08-04T09:47:02.709Z,90.90
2022-08-04T09:49:40.114Z,93.50
2022-08-04T09:52:17.234Z,91.70
2022-08-04T09:54:49.476Z,92.50
2022-08-04T09:57:31.765Z,92.60
2022-08-04T10:00:09.753Z,91.50
2022-08-04T10:02:40.836Z,91.00
2022-08-04T10:05:15.063Z,80.00
2022-08-04T10:08:16.186Z,79.40
2022-08-04T10:10:57.849Z,80.70
2022-08-04T10:13:57.693Z,80.70
2022-08-04T10:16:47.987Z,81.10
2022-08-04T10:19:29.147Z,80.30
2022-08-04T10:22:30.043Z,83.50
2022-08-04T10:26:07.240Z,86.10
2022-08-04T10:28:31.770Z,85.90
2022-08-04T10:31:03.475Z,84.60
2022-08-04T10:34:14.546Z,85.90
2022-08-04T10:37:09.526Z,90.30
2022-08-04T10:40:21.970Z,81.90
2022-08-04T10:43:23.042Z,86.60
2022-08-04T10:46:15.324Z,88.20
2022-08-04T10:49:04.259Z,86.60
2022-08-04T10:51:58.140Z,85.30
2022-08-04T10:54:48.282Z,86.70
2022-08-04T10:57:35.565Z,89.80
2022-08-04T11:00:06.020Z,89.10
2022-08-04T11:03:04.256Z,87.60
2022-08-04T11:05:52.438Z,86.90
2022-08-04T11:08:35.813Z,87.10
2022-08-04T11:11:21.037Z,85.60
2022-08-04T11:13:57.709Z,89.00
2022-08-04T11:16:59.986Z,88.50
2022-08-04T11:19:53.657Z,87.50
2022-08-04T11:22:26.961Z,81.70
2022-08-04T11:25:21.209Z,85.90
2022-08-04T11:28:09.789Z,82.20
2022-08-04T11:30:47.774Z,84.10
2022-08-04T11:33:21.387Z,82.50
2022-08-04T11:36:14.267Z,85.20
2022-08-04T11:38:53.314Z,84.00
2022-08-04T11:41:27.053Z,87.90
2022-08-04T11:44:03.212Z,91.50
2022-08-04T11:46:44.547Z,89.60
2022-08-04T11:49:31.357Z,86.30
2022-08-04T11:52:21.965Z,90.30
2022-08-04T11:54:52.375Z,82.60
2022-08-04T11:57:20.193Z,81.70
2022-08-04T11:59:49.374Z,82.70
2022-08-04T12:02:45.136Z,83.00
2022-08-04T12:05:23.303Z,84.20
2022-08-04T12:08:17.907Z,82.00
2022-08-04T12:11:08.570Z,84.30
2022-08-04T12:13:56.251Z,85.00
2022-08-04T12:16:36.225Z,85.00
2022-08-04T12:19:16.930Z,84.90
2022-08-04T12:21:55.817Z,89.20
2022-08-04T12:24:52.226Z,83.40
2022-08-04T12:27:30.357Z,81.90
2022-08-04T12:30:57.412Z,85.10
2022-08-04T12:34:02.806Z,85.80
2022-08-04T12:36:43.664Z,83.20
2022-08-04T12:39:19.747Z,81.80
2022-08-04T12:41:49.869Z,81.10
2022-08-04T12:44:37.783Z,82.50
2022-08-04T12:47:26.894Z,84.80
2022-08-04T12:50:02.407Z,84.30
2022-08-04T12:53:01.033Z,82.00
2022-08-04T12:55:32.048Z,84.40
2022-08-04T12:58:00.525Z,85.10
2022-08-04T13:00:55.896Z,85.90
2022-08-04T13:03:27.930Z,85.40
2022-08-04T13:05:56.051Z,84.90
2022-08-04T13:08:24.325Z,87.20
2022-08-04T13:10:57.571Z,84.50
2022-08-04T13:13:31.979Z,88.60
2022-08-04T13:16:02.264Z,84.40
2022-08-04T13:18:32.847Z,84.10
2022-08-04T13:21:23.214Z,88.50
2022-08-04T13:24:21.332Z,93.90
2022-08-04T13:27:03.337Z,89.50
2022-08-04T13:30:00.785Z,84.10
2022-08-04T13:32:32.566Z,85.40
2022-08-04T13:35:02.000Z,85.60
2022-08-04T13:37:39.168Z,83.00
2022-08-04T13:40:12.026Z,87.50
2022-08-04T13:42:40.446Z,88.60
2022-08-04T13:45:10.015Z,91.10
2022-08-04T13:47:40.537Z,93.80
2022-08-04T13:50:19.502Z,87.20
2022-08-04T13:52:47.719Z,92.50
2022-08-04T13:55:25.974Z,93.20
2022-08-04T13:58:04.558Z,89.10
2022-08-04T14:01:06.516Z,90.10
2022-08-04T14:03:53.544Z,91.70
2022-08-04T14:06:35.115Z,85.50
2022-08-04T14:09:19.299Z,87.50
2022-08-04T14:12:10.136Z,85.80
2022-08-04T14:14:49.494Z,87.00
2022-08-04T14:17:20.633Z,86.90
2022-08-04T14:19:58.060Z,88.90
2022-08-04T14:22:28.557Z,90.10
2022-08-04T14:24:59.529Z,90.30
2022-08-04T14:27:29.318Z,87.90
2022-08-04T14:29:56.565Z,90.30
2022-08-04T14:32:26.273Z,91.30
2022-08-04T14:34:53.796Z,88.10
2022-08-04T14:37:22.757Z,84.20
2022-08-04T14:40:19.039Z,84.80
2022-08-04T14:42:55.452Z,85.10
2022-08-04T14:45:36.949Z,84.30
2022-08-04T14:48:12.659Z,85.30
2022-08-04T14:50:51.104Z,84.50
2022-08-04T14:53:26.694Z,85.50
2022-08-04T14:55:57.134Z,84.20
2022-08-04T14:58:32.528Z,84.10
2022-08-04T15:01:10.830Z,83.90
2022-08-04T15:03:47.934Z,84.80
2022-08-04T15:06:21.893Z,85.20
2022-08-04T15:08:51.392Z,86.70
2022-08-04T15:11:23.628Z,85.10
2022-08-04T15:13:52.668Z,85.70
2022-08-04T15:16:20.755Z,85.70
2022-08-04T15:18:49.415Z,86.50
2022-08-04T15:21:17.851Z,85.40
2022-08-04T15:23:44.994Z,86.80
2022-08-04T15:26:17.123Z,85.90
2022-08-04T15:28:50.590Z,86.40
2022-08-04T15:32:06.962Z,87.40
2022-08-04T15:34:09.766Z,85.10
2022-08-04T15:36:56.726Z,85.50
2022-08-04T15:39:46.378Z,85.20
2022-08-04T15:42:21.661Z,85.20
2022-08-04T15:45:17.801Z,84.70
2022-08-04T15:48:06.790Z,86.00
2022-08-04T15:50:33.999Z,84.60
2022-08-04T15:53:10.743Z,86.30
2022-08-04T15:55:44.901Z,87.20
2022-08-04T15:58:18.434Z,85.30
2022-08-04T16:00:51.200Z,87.00
2022-08-04T16:03:54.534Z,85.30
2022-08-04T16:06:23.927Z,86.80
2022-08-04T16:09:01.697Z,84.90
2022-08-04T16:11:34.040Z,85.40
2022-08-04T16:14:07.790Z,85.80
2022-08-04T16:16:41.235Z,86.70
2022-08-04T16:19:17.097Z,85.60
2022-08-04T16:21:50.599Z,86.10
2022-08-04T16:24:28.220Z,85.60
2022-08-04T16:26:57.945Z,86.90
2022-08-04T16:29:31.268Z,87.10
2022-08-04T16:32:16.734Z,89.40
2022-08-04T16:34:54.998Z,88.30
2022-08-04T16:37:43.530Z,86.60
2022-08-04T16:40:36.288Z,86.90
2022-08-04T16:43:10.179Z,86.70
2022-08-04T16:45:48.201Z,87.10
2022-08-04T16:48:17.521Z,87.40
2022-08-04T16:51:04.877Z,88.20
2022-08-04T16:54:02.899Z,87.60
2022-08-04T16:56:33.896Z,88.30
2022-08-04T16:59:12.984Z,87.30
2022-08-04T17:01:50.436Z,88.30
2022-08-04T17:04:17.965Z,88.50
2022-08-04T17:06:49.661Z,88.80
2022-08-04T17:09:19.047Z,87.70
2022-08-04T17:11:47.611Z,88.10
2022-08-04T17:14:31.343Z,88.90
2022-08-04T17:17:01.198Z,88.70
2022-08-04T17:19:28.934Z,89.20
2022-08-04T17:22:05.863Z,88.50
2022-08-04T17:24:38.959Z,90.10
2022-08-04T17:28:20.195Z,89.40
2022-08-04T17:29:55.179Z,88.40
2022-08-04T17:32:23.678Z,89.30
2022-08-04T17:34:53.896Z,89.90
2022-08-04T17:37:53.172Z,90.00
2022-08-04T17:40:17.922Z,90.40
2022-08-04T17:42:45.710Z,90.70
2022-08-04T17:45:49.053Z,91.20
2022-08-04T17:48:24.782Z,91.50
2022-08-04T17:50:52.787Z,90.70
2022-08-04T17:54:01.674Z,91.30
2022-08-04T17:56:33.490Z,91.60
2022-08-04T17:59:16.604Z,91.40
2022-08-04T18:02:08.651Z,91.50
2022-08-04T18:05:05.955Z,91.50
2022-08-04T18:08:37.829Z,91.70
2022-08-04T18:10:54.745Z,91.70
2022-08-04T18:13:26.646Z,91.80
2022-08-04T18:16:04.393Z,92.00
2022-08-04T18:18:31.873Z,92.40
2022-08-04T18:23:50.895Z,92.40
2022-08-04T18:26:18.593Z,92.50
2022-08-04T18:28:51.256Z,92.80
2022-08-04T18:31:18.330Z,92.80
2022-08-04T18:33:59.044Z,92.80
2022-08-04T18:36:35.338Z,92.80
2022-08-04T18:42:03.917Z,92.90
2022-08-04T18:44:32.777Z,93.00
2022-08-04T18:47:23.173Z,93.00
2022-08-04T18:50:59.727Z,93.10
2022-08-04T18:52:42.117Z,93.00
2022-08-04T18:55:55.457Z,93.00
2022-08-04T18:58:07.362Z,93.10
2022-08-04T19:00:38.904Z,93.10
2022-08-04T19:03:16.614Z,93.00
2022-08-04T19:05:51.858Z,93.00
2022-08-04T19:08:34.878Z,93.20
2022-08-04T19:11:29.286Z,93.20
2022-08-04T19:13:58.335Z,93.20
2022-08-04T19:16:30.611Z,93.30
2022-08-04T19:19:05.584Z,93.30
2022-08-04T19:21:59.566Z,93.40
2022-08-04T19:24:31.938Z,93.30
2022-08-04T19:27:06.450Z,93.30
2022-08-04T19:29:40.627Z,93.50
2022-08-04T19:32:14.664Z,93.60
2022-08-04T19:34:47.058Z,93.60
2022-08-04T19:37:58.336Z,93.60
2022-08-04T19:40:10.239Z,93.80
2022-08-04T19:42:38.062Z,93.60
2022-08-04T19:45:06.985Z,93.60
2022-08-04T19:48:15.988Z,93.50
2022-08-04T19:53:19.734Z,93.70
2022-08-04T19:55:50.002Z,93.60
2022-08-04T19:58:19.065Z,93.50
2022-08-04T20:00:51.330Z,93.60
2022-08-04T20:03:20.388Z,93.70
2022-08-04T20:05:53.155Z,93.90
2022-08-04T20:08:30.215Z,93.90
2022-08-04T20:10:59.384Z,94.20
2022-08-04T20:13:36.888Z,94.30
2022-08-04T20:16:28.998Z,94.30
2022-08-04T20:18:56.947Z,94.40
2022-08-04T20:24:37.683Z,94.30
2022-08-04T20:27:04.828Z,94.30
2022-08-04T20:29:40.213Z,94.30
2022-08-04T20:32:09.972Z,94.20
2022-08-04T20:34:41.398Z,94.20
2022-08-04T20:37:10.197Z,94.00
2022-08-04T20:39:38.492Z,94.00
2022-08-04T20:42:06.547Z,94.00
2022-08-04T20:44:34.076Z,94.20
2022-08-04T20:47:01.684Z,94.10
2022-08-04T20:49:35.442Z,94.60
2022-08-04T20:52:13.274Z,94.60
2022-08-04T20:54:42.640Z,94.70
2022-08-04T20:57:16.661Z,94.80
2022-08-04T20:59:50.399Z,94.90
2022-08-04T21:02:27.843Z,95.10
2022-08-04T21:04:56.292Z,95.40
2022-08-04T21:07:25.294Z,95.40
2022-08-04T21:09:52.847Z,95.60
2022-08-04T21:12:28.322Z,94.40
2022-08-04T21:14:57.444Z,95.30
2022-08-04T21:17:57.725Z,95.20
2022-08-04T21:20:27.257Z,95.60
2022-08-04T21:22:59.409Z,99.10
2022-08-04T21:25:28.991Z,96.80
2022-08-04T21:28:04.421Z,96.20
2022-08-04T21:30:36.993Z,95.90
2022-08-04T21:33:50.277Z,95.60
2022-08-04T21:36:27.402Z,95.90
2022-08-04T21:38:57.425Z,95.90
2022-08-04T21:41:49.179Z,96.00
2022-08-04T21:44:26.405Z,96.00
2022-08-04T21:46:55.252Z,95.90
2022-08-04T21:49:24.930Z,96.10
2022-08-04T21:51:58.973Z,95.70
2022-08-04T21:54:29.822Z,95.50
2022-08-04T21:56:57.435Z,95.10
2022-08-04T21:59:30.514Z,94.50
2022-08-04T22:04:54.077Z,96.10
2022-08-04T22:07:26.256Z,94.90
2022-08-04T22:10:18.510Z,97.00
2022-08-04T22:12:53.931Z,97.20
2022-08-04T22:16:05.233Z,97.30
2022-08-04T22:18:12.890Z,96.90
2022-08-04T22:20:47.403Z,96.70
2022-08-04T22:25:59.401Z,96.70
2022-08-04T22:28:38.024Z,96.70
2022-08-04T22:31:23.155Z,96.40
2022-08-04T22:34:05.811Z,96.30
2022-08-04T22:36:38.379Z,96.20
2022-08-04T22:39:08.805Z,96.00
2022-08-04T22:41:48.481Z,95.80
2022-08-04T22:44:22.805Z,95.40
2022-08-04T22:46:58.976Z,95.30
2022-08-04T22:49:32.621Z,95.40
2022-08-04T22:52:09.919Z,95.30
2022-08-04T22:54:49.916Z,94.90
2022-08-04T22:57:43.315Z,94.70
2022-08-04T23:03:38.539Z,94.40
2022-08-04T23:06:19.503Z,94.60
2022-08-04T23:08:59.517Z,94.60
2022-08-04T23:11:36.173Z,94.80
2022-08-04T23:17:10.029Z,94.60
2022-08-04T23:19:43.891Z,94.30
2022-08-04T23:22:44.545Z,94.30
2022-08-04T23:25:19.159Z,93.90
2022-08-04T23:28:11.894Z,93.50
2022-08-04T23:30:41.025Z,93.70
2022-08-04T23:33:16.610Z,93.60
2022-08-04T23:35:54.784Z,93.40
2022-08-04T23:38:31.384Z,93.00
2022-08-04T23:41:14.025Z,93.10
2022-08-04T23:43:55.728Z,93.40
2022-08-04T23:46:44.060Z,93.30
2022-08-04T23:49:43.975Z,93.70
2022-08-04T23:52:34.708Z,94.10
2022-08-04T23:55:31.963Z,93.90
2022-08-04T23:58:19.070Z,94.10
